createdAt,value
2022-12-05T00:00:40.711Z,1003.17
2022-12-05T00:01:40.695Z,1003.19
2022-12-05T00:03:44.671Z,1003.18
2022-12-05T00:04:44.661Z,1003.19
2022-12-05T00:06:48.536Z,1003.19
2022-12-05T00:07:48.531Z,1003.22
2022-12-05T00:09:52.450Z,1003.20
2022-12-05T00:10:52.431Z,1003.25
2022-12-05T00:12:45.304Z,1003.24
2022-12-05T00:13:45.284Z,1003.26
2022-12-05T00:15:49.217Z,1003.25
2022-12-05T00:16:49.301Z,1003.29
2022-12-05T00:18:53.132Z,1003.31
2022-12-05T00:19:56.704Z,1003.31
2022-12-05T00:21:57.039Z,1003.31
2022-12-05T00:22:57.058Z,1003.34
2022-12-05T00:25:01.042Z,1003.33
2022-12-05T00:26:00.942Z,1003.36
2022-12-05T00:28:04.874Z,1003.45
2022-12-05T00:29:04.856Z,1003.42
2022-12-05T00:31:08.796Z,1003.43
2022-12-05T00:32:08.810Z,1003.45
2022-12-05T00:34:12.712Z,1003.45
2022-12-05T00:35:12.691Z,1003.42
2022-12-05T00:37:16.624Z,1003.45
2022-12-05T00:38:16.610Z,1003.47
2022-12-05T00:40:20.552Z,1003.47
2022-12-05T00:41:20.526Z,1003.46
2022-12-05T00:43:13.389Z,1003.48
2022-12-05T00:44:13.375Z,1003.53
2022-12-05T00:46:17.396Z,1003.55
2022-12-05T00:47:17.290Z,1003.53
2022-12-05T00:49:21.235Z,1003.55
2022-12-05T00:50:21.207Z,1003.55
2022-12-05T00:52:14.066Z,1003.58
2022-12-05T00:53:14.051Z,1003.55
2022-12-05T00:55:18.036Z,1003.59
2022-12-05T00:56:18.012Z,1003.62
2022-12-05T00:58:21.952Z,1003.66
2022-12-05T00:59:21.934Z,1003.64
2022-12-05T01:01:25.982Z,1003.61
2022-12-05T01:02:25.853Z,1003.60
2022-12-05T01:04:29.798Z,1003.58
2022-12-05T01:05:29.772Z,1003.59
2022-12-05T01:07:33.788Z,1003.60
2022-12-05T01:08:33.696Z,1003.56
2022-12-05T01:10:37.626Z,1003.62
2022-12-05T01:11:41.240Z,1003.58
2022-12-05T01:13:41.537Z,1003.61
2022-12-05T01:14:41.518Z,1003.65
2022-12-05T01:16:45.567Z,1003.68
2022-12-05T01:17:45.434Z,1003.68
2022-12-05T01:19:49.378Z,1003.65
2022-12-05T01:20:49.349Z,1003.57
2022-12-05T01:22:42.213Z,1003.58
2022-12-05T01:23:42.195Z,1003.60
2022-12-05T01:25:46.141Z,1003.74
2022-12-05T01:26:46.114Z,1003.80
2022-12-05T01:28:50.090Z,1003.77
2022-12-05T01:29:50.034Z,1003.82
2022-12-05T01:31:54.096Z,1003.84
2022-12-05T01:32:53.958Z,1003.84
2022-12-05T01:34:57.895Z,1003.78
2022-12-05T01:35:57.868Z,1003.75
2022-12-05T01:38:01.801Z,1003.78
2022-12-05T01:39:01.792Z,1003.79
2022-12-05T01:41:05.732Z,1003.85
2022-12-05T01:42:05.703Z,1003.85
2022-12-05T01:44:09.644Z,1003.98
2022-12-05T01:45:09.623Z,1003.97
2022-12-05T01:47:13.567Z,1003.91
2022-12-05T01:48:13.538Z,1003.94
2022-12-05T01:50:17.482Z,1003.92
2022-12-05T01:51:17.455Z,1003.97
2022-12-05T01:53:10.319Z,1003.97
2022-12-05T01:54:10.302Z,1004.00
2022-12-05T01:56:14.245Z,1003.99
2022-12-05T01:57:14.216Z,1004.00
2022-12-05T01:59:18.152Z,1003.98
2022-12-05T02:00:18.140Z,1004.00
2022-12-05T02:02:22.124Z,1004.01
2022-12-05T02:03:22.055Z,1004.01
2022-12-05T02:05:25.995Z,1003.96
2022-12-05T02:06:25.970Z,1003.94
2022-12-05T02:08:29.910Z,1003.91
2022-12-05T02:09:29.894Z,1003.84
2022-12-05T02:11:33.837Z,1003.88
2022-12-05T02:12:33.813Z,1003.87
2022-12-05T02:14:37.744Z,1003.79
2022-12-05T02:15:37.736Z,1003.81
2022-12-05T02:17:41.673Z,1003.80
2022-12-05T02:18:41.648Z,1003.83
2022-12-05T02:20:45.587Z,1003.83
2022-12-05T02:21:45.566Z,1003.79
2022-12-05T02:23:49.490Z,1003.81
2022-12-05T02:24:49.476Z,1003.80
2022-12-05T02:26:53.415Z,1003.78
2022-12-05T02:27:53.395Z,1003.79
2022-12-05T02:29:57.445Z,1003.80
2022-12-05T02:30:57.334Z,1003.84
2022-12-05T02:32:50.174Z,1003.81
2022-12-05T02:33:50.156Z,1003.81
2022-12-05T02:35:54.096Z,1003.81
2022-12-05T02:36:54.069Z,1003.84
2022-12-05T02:38:58.001Z,1003.93
2022-12-05T02:39:58.242Z,1003.89
2022-12-05T02:42:01.923Z,1003.93
2022-12-05T02:43:01.902Z,1003.90
2022-12-05T02:45:05.839Z,1003.86
2022-12-05T02:46:05.886Z,1003.85
2022-12-05T02:48:09.760Z,1003.87
2022-12-05T02:49:09.737Z,1003.88
2022-12-05T02:51:13.685Z,1003.95
2022-12-05T02:52:13.653Z,1003.93
2022-12-05T02:54:17.592Z,1004.00
2022-12-05T02:55:17.575Z,1004.02
2022-12-05T02:57:21.512Z,1004.02
2022-12-05T02:58:21.489Z,1004.02
2022-12-05T03:00:25.425Z,1004.09
2022-12-05T03:01:25.518Z,1004.04
2022-12-05T03:03:18.286Z,1004.12
2022-12-05T03:04:18.368Z,1004.11
2022-12-05T03:06:22.193Z,1004.08
2022-12-05T03:07:22.176Z,1004.04
2022-12-05T03:09:26.135Z,1004.08
2022-12-05T03:10:26.110Z,1004.06
2022-12-05T03:12:30.053Z,1004.09
2022-12-05T03:13:30.030Z,1004.10
2022-12-05T03:15:33.962Z,1004.11
2022-12-05T03:16:33.983Z,1004.14
2022-12-05T03:18:37.889Z,1004.17
2022-12-05T03:19:37.863Z,1004.18
2022-12-05T03:21:41.808Z,1004.18
2022-12-05T03:22:41.784Z,1004.20
2022-12-05T03:24:45.716Z,1004.22
2022-12-05T03:25:45.718Z,1004.22
2022-12-05T03:27:49.643Z,1004.23
2022-12-05T03:28:49.619Z,1004.22
2022-12-05T03:30:53.596Z,1004.26
2022-12-05T03:31:53.536Z,1004.27
2022-12-05T03:33:57.479Z,1004.28
2022-12-05T03:34:57.450Z,1004.27
2022-12-05T03:37:01.397Z,1004.25
2022-12-05T03:38:01.367Z,1004.30
2022-12-05T03:40:05.305Z,1004.35
2022-12-05T03:41:05.287Z,1004.40
2022-12-05T03:42:58.158Z,1004.42
2022-12-05T03:43:58.134Z,1004.40
2022-12-05T03:46:02.158Z,1004.44
2022-12-05T03:47:02.081Z,1004.47
2022-12-05T03:49:06.025Z,1004.42
2022-12-05T03:50:06.001Z,1004.41
2022-12-05T03:52:09.948Z,1004.40
2022-12-05T03:53:25.248Z,1004.42
2022-12-05T03:55:13.849Z,1004.39
2022-12-05T03:56:13.835Z,1004.38
2022-12-05T03:58:17.776Z,1004.33
2022-12-05T03:59:17.750Z,1004.34
2022-12-05T04:01:21.749Z,1004.32
2022-12-05T04:02:21.666Z,1004.32
2022-12-05T04:04:25.614Z,1004.29
2022-12-05T04:05:25.585Z,1004.31
2022-12-05T04:07:29.619Z,1004.35
2022-12-05T04:08:29.501Z,1004.35
2022-12-05T04:10:33.440Z,1004.43
2022-12-05T04:11:33.416Z,1004.43
2022-12-05T04:13:26.288Z,1004.49
2022-12-05T04:14:26.258Z,1004.53
2022-12-05T04:16:30.273Z,1004.51
2022-12-05T04:17:30.186Z,1004.54
2022-12-05T04:19:34.122Z,1004.52
2022-12-05T04:20:34.099Z,1004.50
2022-12-05T04:22:38.033Z,1004.47
2022-12-05T04:23:38.019Z,1004.40
2022-12-05T04:25:42.119Z,1004.47
2022-12-05T04:26:42.093Z,1004.48
2022-12-05T04:28:46.034Z,1004.48
2022-12-05T04:29:46.010Z,1004.50
2022-12-05T04:31:49.946Z,1004.52
2022-12-05T04:32:49.928Z,1004.54
2022-12-05T04:34:53.873Z,1004.56
2022-12-05T04:35:53.853Z,1004.54
2022-12-05T04:37:57.779Z,1004.56
2022-12-05T04:38:57.763Z,1004.56
2022-12-05T04:41:01.702Z,1004.55
2022-12-05T04:42:01.677Z,1004.52
2022-12-05T04:44:05.616Z,1004.55
2022-12-05T04:45:05.592Z,1004.57
2022-12-05T04:47:09.528Z,1004.63
2022-12-05T04:48:09.508Z,1004.67
2022-12-05T04:50:13.447Z,1004.72
2022-12-05T04:51:13.429Z,1004.68
2022-12-05T04:53:06.291Z,1004.69
2022-12-05T04:54:06.279Z,1004.71
2022-12-05T04:56:10.214Z,1004.74
2022-12-05T04:57:10.190Z,1004.74
2022-12-05T04:59:14.131Z,1004.75
2022-12-05T05:00:14.112Z,1004.75
2022-12-05T05:02:18.042Z,1004.73
2022-12-05T05:03:18.197Z,1004.69
2022-12-05T05:05:21.966Z,1004.69
2022-12-05T05:06:21.944Z,1004.70
2022-12-05T05:08:25.874Z,1004.73
2022-12-05T05:09:25.860Z,1004.68
2022-12-05T05:11:29.805Z,1004.67
2022-12-05T05:12:29.774Z,1004.68
2022-12-05T05:14:33.719Z,1004.68
2022-12-05T05:15:33.696Z,1004.70
2022-12-05T05:17:37.628Z,1004.78
2022-12-05T05:18:37.609Z,1004.73
2022-12-05T05:20:41.554Z,1004.68
2022-12-05T05:21:41.525Z,1004.65
2022-12-05T05:23:45.463Z,1004.56
2022-12-05T05:24:45.445Z,1004.49
2022-12-05T05:26:55.527Z,1004.52
2022-12-05T05:27:49.367Z,1004.53
2022-12-05T05:29:53.301Z,1004.57
2022-12-05T05:30:53.312Z,1004.56
2022-12-05T05:32:46.138Z,1004.53
2022-12-05T05:33:46.120Z,1004.55
2022-12-05T05:35:50.075Z,1004.56
2022-12-05T05:36:50.041Z,1004.56
2022-12-05T05:38:53.971Z,1004.59
2022-12-05T05:39:53.953Z,1004.61
2022-12-05T05:41:57.895Z,1004.64
2022-12-05T05:42:57.873Z,1004.64
2022-12-05T05:45:01.811Z,1004.72
2022-12-05T05:46:01.787Z,1004.73
2022-12-05T05:48:05.720Z,1004.73
2022-12-05T05:49:05.706Z,1004.72
2022-12-05T05:51:09.645Z,1004.68
2022-12-05T05:52:09.621Z,1004.70
2022-12-05T05:54:13.555Z,1004.76
2022-12-05T05:55:13.547Z,1004.72
2022-12-05T05:57:20.399Z,1004.82
2022-12-05T05:58:17.456Z,1004.82
2022-12-05T06:00:21.401Z,1004.83
2022-12-05T06:01:21.370Z,1004.83
2022-12-05T06:03:14.329Z,1004.85
2022-12-05T06:04:14.246Z,1004.86
2022-12-05T06:06:18.157Z,1004.86
2022-12-05T06:07:18.130Z,1004.89
2022-12-05T06:09:22.067Z,1004.86
2022-12-05T06:10:22.056Z,1004.88
2022-12-05T06:12:25.987Z,1004.91
2022-12-05T06:13:25.965Z,1004.94
2022-12-05T06:15:29.940Z,1004.92
2022-12-05T06:16:30.023Z,1004.94
2022-12-05T06:18:33.816Z,1004.95
2022-12-05T06:19:33.803Z,1005.04
2022-12-05T06:21:37.742Z,1005.00
2022-12-05T06:22:37.718Z,1005.00
2022-12-05T06:24:41.661Z,1005.00
2022-12-05T06:25:41.643Z,1004.96
2022-12-05T06:27:45.588Z,1004.94
2022-12-05T06:28:45.564Z,1004.94
2022-12-05T06:30:49.500Z,1005.02
2022-12-05T06:31:49.515Z,1004.97
2022-12-05T06:33:53.411Z,1005.05
2022-12-05T06:34:53.395Z,1005.08
2022-12-05T06:36:57.338Z,1005.08
2022-12-05T06:37:57.311Z,1005.07
2022-12-05T06:40:01.397Z,1005.12
2022-12-05T06:41:01.227Z,1005.13
2022-12-05T06:42:54.089Z,1005.12
2022-12-05T06:43:56.270Z,1005.08
2022-12-05T06:45:58.069Z,1005.11
2022-12-05T06:46:57.985Z,1005.19
2022-12-05T06:49:01.933Z,1005.15
2022-12-05T06:50:01.913Z,1005.18
2022-12-05T06:52:05.857Z,1005.25
2022-12-05T06:53:05.829Z,1005.24
2022-12-05T06:55:09.768Z,1005.24
2022-12-05T06:56:09.752Z,1005.23
2022-12-05T06:58:13.697Z,1005.22
2022-12-05T06:59:13.675Z,1005.23
2022-12-05T07:01:17.682Z,1005.22
2022-12-05T07:02:17.626Z,1005.25
2022-12-05T07:04:21.525Z,1005.32
2022-12-05T07:05:21.505Z,1005.34
2022-12-05T07:07:25.457Z,1005.35
2022-12-05T07:08:25.425Z,1005.37
2022-12-05T07:10:29.412Z,1005.38
2022-12-05T07:11:29.341Z,1005.43
2022-12-05T07:13:22.215Z,1005.40
2022-12-05T07:14:46.521Z,1005.43
2022-12-05T07:16:26.225Z,1005.46
2022-12-05T07:17:26.108Z,1005.45
2022-12-05T07:19:30.040Z,1005.49
2022-12-05T07:20:43.131Z,1005.48
2022-12-05T07:22:33.965Z,1005.48
2022-12-05T07:23:33.939Z,1005.47
2022-12-05T07:25:37.878Z,1005.49
2022-12-05T07:26:37.860Z,1005.47
2022-12-05T07:28:41.801Z,1005.46
2022-12-05T07:29:41.777Z,1005.47
2022-12-05T07:31:45.791Z,1005.49
2022-12-05T07:32:45.688Z,1005.56
2022-12-05T07:34:38.839Z,1005.59
2022-12-05T07:35:38.734Z,1005.60
2022-12-05T07:37:42.683Z,1005.56
2022-12-05T07:38:42.656Z,1005.61
2022-12-05T07:40:46.589Z,1005.65
2022-12-05T07:41:46.571Z,1005.70
2022-12-05T07:43:50.509Z,1005.74
2022-12-05T07:44:50.493Z,1005.75
2022-12-05T07:46:54.449Z,1005.82
2022-12-05T07:47:54.559Z,1005.84
2022-12-05T07:49:58.749Z,1005.87
2022-12-05T07:50:58.322Z,1005.88
2022-12-05T07:52:51.192Z,1005.86
2022-12-05T07:53:51.180Z,1005.90
2022-12-05T07:55:55.104Z,1005.91
2022-12-05T07:56:55.083Z,1005.93
2022-12-05T07:58:59.028Z,1005.96
2022-12-05T07:59:59.331Z,1005.95
2022-12-05T08:02:03.016Z,1005.95
2022-12-05T08:03:03.002Z,1005.98
2022-12-05T08:05:06.859Z,1006.02
2022-12-05T08:06:06.839Z,1005.99
2022-12-05T08:08:10.886Z,1006.05
2022-12-05T08:09:10.754Z,1006.05
2022-12-05T08:11:14.691Z,1006.04
2022-12-05T08:12:14.677Z,1006.02
2022-12-05T08:14:18.613Z,1006.06
2022-12-05T08:15:18.587Z,1006.04
2022-12-05T08:17:22.529Z,1006.03
2022-12-05T08:18:27.187Z,1006.02
2022-12-05T08:19:22.497Z,1006.07
2022-12-05T08:20:22.483Z,1006.05
2022-12-05T08:21:22.472Z,1006.03
2022-12-05T08:22:22.453Z,1006.07
2022-12-05T08:23:22.446Z,1006.06
2022-12-05T08:24:22.430Z,1006.05
2022-12-05T08:25:22.418Z,1006.06
2022-12-05T08:26:22.404Z,1006.10
2022-12-05T08:27:22.389Z,1006.11
2022-12-05T08:28:22.374Z,1006.14
2022-12-05T08:29:22.373Z,1006.15
2022-12-05T08:30:22.350Z,1006.18
2022-12-05T08:31:22.986Z,1006.21
2022-12-05T08:32:22.323Z,1006.25
2022-12-05T08:33:22.310Z,1006.26
2022-12-05T08:34:22.296Z,1006.27
2022-12-05T08:35:22.288Z,1006.27
2022-12-05T08:36:22.272Z,1006.29
2022-12-05T08:37:22.258Z,1006.26
2022-12-05T08:38:22.292Z,1006.29
2022-12-05T08:39:22.236Z,1006.32
2022-12-05T08:40:22.222Z,1006.36
2022-12-05T08:41:22.207Z,1006.33
2022-12-05T08:42:22.193Z,1006.36
2022-12-05T08:43:22.184Z,1006.37
2022-12-05T08:44:22.170Z,1006.40
2022-12-05T08:45:22.159Z,1006.41
2022-12-05T08:46:22.221Z,1006.44
2022-12-05T08:47:22.127Z,1006.44
2022-12-05T08:48:27.531Z,1006.47
2022-12-05T08:49:22.107Z,1006.49
2022-12-05T08:50:22.092Z,1006.55
2022-12-05T08:51:22.092Z,1006.56
2022-12-05T08:52:22.071Z,1006.59
2022-12-05T08:53:22.054Z,1006.65
2022-12-05T08:54:22.039Z,1006.66
2022-12-05T08:55:22.027Z,1006.64
2022-12-05T08:56:26.588Z,1006.65
2022-12-05T08:57:21.998Z,1006.68
2022-12-05T08:58:21.987Z,1006.67
2022-12-05T08:59:21.984Z,1006.66
2022-12-05T09:00:21.958Z,1006.66
2022-12-05T09:01:22.029Z,1006.65
2022-12-05T09:02:22.018Z,1006.66
2022-12-05T09:03:21.924Z,1006.68
2022-12-05T09:04:21.915Z,1006.65
2022-12-05T09:05:28.252Z,1006.69
2022-12-05T09:06:21.882Z,1006.70
2022-12-05T09:07:21.871Z,1006.73
2022-12-05T09:08:21.889Z,1006.72
2022-12-05T09:09:21.850Z,1006.74
2022-12-05T09:10:21.833Z,1006.75
2022-12-05T09:11:21.823Z,1006.77
2022-12-05T09:12:21.805Z,1006.71
2022-12-05T09:13:21.817Z,1006.74
2022-12-05T09:14:21.779Z,1006.73
2022-12-05T09:15:21.769Z,1006.77
2022-12-05T09:16:21.786Z,1006.76
2022-12-05T09:17:21.742Z,1006.80
2022-12-05T09:18:21.730Z,1006.78
2022-12-05T09:19:21.715Z,1006.78
2022-12-05T09:20:21.704Z,1006.80
2022-12-05T09:21:21.692Z,1006.80
2022-12-05T09:22:21.678Z,1006.84
2022-12-05T09:23:21.667Z,1006.78
2022-12-05T09:24:21.654Z,1006.79
2022-12-05T09:25:21.640Z,1006.79
2022-12-05T09:26:21.629Z,1006.79
2022-12-05T09:27:21.614Z,1006.79
2022-12-05T09:28:21.603Z,1006.82
2022-12-05T09:29:21.590Z,1006.81
2022-12-05T09:30:21.577Z,1006.84
2022-12-05T09:31:21.649Z,1006.80
2022-12-05T09:32:21.548Z,1006.81
2022-12-05T09:33:21.540Z,1006.84
2022-12-05T09:34:21.528Z,1006.89
2022-12-05T09:35:21.532Z,1006.90
2022-12-05T09:36:21.506Z,1006.89
2022-12-05T09:37:38.740Z,1006.92
2022-12-05T09:38:21.480Z,1006.89
2022-12-05T09:39:21.463Z,1006.89
2022-12-05T09:40:21.441Z,1006.90
2022-12-05T09:41:21.437Z,1006.89
2022-12-05T09:42:21.423Z,1006.88
2022-12-05T09:43:21.411Z,1006.87
2022-12-05T09:44:21.399Z,1006.85
2022-12-05T09:45:21.387Z,1006.84
2022-12-05T09:46:21.418Z,1006.84
2022-12-05T09:47:21.360Z,1006.80
2022-12-05T09:48:21.347Z,1006.83
2022-12-05T09:49:21.338Z,1006.81
2022-12-05T09:50:21.321Z,1006.81
2022-12-05T09:51:21.310Z,1006.84
2022-12-05T09:52:21.296Z,1006.86
2022-12-05T09:53:21.282Z,1006.87
2022-12-05T09:54:21.270Z,1006.92
2022-12-05T09:55:21.262Z,1006.96
2022-12-05T09:56:21.248Z,1006.92
2022-12-05T09:57:21.234Z,1006.96
2022-12-05T09:58:21.218Z,1006.96
2022-12-05T09:59:21.210Z,1006.88
2022-12-05T10:00:21.195Z,1006.91
2022-12-05T10:01:21.237Z,1006.88
2022-12-05T10:02:21.168Z,1006.88
2022-12-05T10:03:21.157Z,1006.83
2022-12-05T10:04:21.207Z,1006.79
2022-12-05T10:05:21.189Z,1006.80
2022-12-05T10:06:21.120Z,1006.78
2022-12-05T10:07:21.105Z,1006.79
2022-12-05T10:08:21.146Z,1006.77
2022-12-05T10:09:21.081Z,1006.82
2022-12-05T10:10:21.092Z,1006.84
2022-12-05T10:11:21.055Z,1006.83
2022-12-05T10:12:21.048Z,1006.85
2022-12-05T10:13:21.028Z,1006.78
2022-12-05T10:14:21.023Z,1006.80
2022-12-05T10:15:21.008Z,1006.81
2022-12-05T10:16:21.081Z,1006.79
2022-12-05T10:17:20.978Z,1006.76
2022-12-05T10:18:20.969Z,1006.77
2022-12-05T10:19:20.957Z,1006.73
2022-12-05T10:20:21.024Z,1006.71
2022-12-05T10:21:20.930Z,1006.73
2022-12-05T10:22:21.045Z,1006.74
2022-12-05T10:23:48.773Z,1006.76
2022-12-05T10:24:20.895Z,1006.79
2022-12-05T10:25:20.881Z,1006.81
2022-12-05T10:26:20.870Z,1006.81
2022-12-05T10:27:20.853Z,1006.80
2022-12-05T10:28:20.842Z,1006.80
2022-12-05T10:29:20.829Z,1006.81
2022-12-05T10:30:20.902Z,1006.81
2022-12-05T10:31:20.892Z,1006.79
2022-12-05T10:32:20.792Z,1006.82
2022-12-05T10:33:20.776Z,1006.83
2022-12-05T10:34:20.768Z,1006.81
2022-12-05T10:35:20.751Z,1006.83
2022-12-05T10:36:20.741Z,1006.83
2022-12-05T10:37:20.727Z,1006.80
2022-12-05T10:38:20.719Z,1006.78
2022-12-05T10:39:20.706Z,1006.74
2022-12-05T10:40:20.735Z,1006.77
2022-12-05T10:41:20.685Z,1006.71
2022-12-05T10:42:20.667Z,1006.68
2022-12-05T10:43:20.653Z,1006.70
2022-12-05T10:44:20.645Z,1006.71
2022-12-05T10:45:20.630Z,1006.70
2022-12-05T10:46:20.655Z,1006.75
2022-12-05T10:47:20.602Z,1006.72
2022-12-05T10:48:20.612Z,1006.73
2022-12-05T10:49:20.576Z,1006.69
2022-12-05T10:50:20.569Z,1006.70
2022-12-05T10:51:20.555Z,1006.72
2022-12-05T10:52:20.541Z,1006.69
2022-12-05T10:53:20.525Z,1006.68
2022-12-05T10:54:20.518Z,1006.67
2022-12-05T10:55:20.503Z,1006.71
2022-12-05T10:56:30.198Z,1006.64
2022-12-05T10:57:20.473Z,1006.64
2022-12-05T10:58:20.473Z,1006.65
2022-12-05T10:59:20.476Z,1006.64
2022-12-05T11:00:20.470Z,1006.65
2022-12-05T11:01:20.455Z,1006.64
2022-12-05T11:02:20.452Z,1006.66
2022-12-05T11:03:20.402Z,1006.65
2022-12-05T11:04:20.392Z,1006.62
2022-12-05T11:05:20.437Z,1006.62
2022-12-05T11:06:20.373Z,1006.59
2022-12-05T11:07:20.351Z,1006.63
2022-12-05T11:08:31.154Z,1006.61
2022-12-05T11:09:20.324Z,1006.63
2022-12-05T11:10:25.061Z,1006.63
2022-12-05T11:11:20.302Z,1006.59
2022-12-05T11:12:20.290Z,1006.62
2022-12-05T11:13:20.275Z,1006.56
2022-12-05T11:14:20.265Z,1006.55
2022-12-05T11:15:20.252Z,1006.56
2022-12-05T11:16:20.258Z,1006.55
2022-12-05T11:17:20.224Z,1006.50
2022-12-05T11:18:20.220Z,1006.55
2022-12-05T11:19:20.202Z,1006.53
2022-12-05T11:20:20.199Z,1006.56
2022-12-05T11:21:20.201Z,1006.57
2022-12-05T11:22:20.164Z,1006.58
2022-12-05T11:23:20.151Z,1006.56
2022-12-05T11:24:20.141Z,1006.60
2022-12-05T11:25:20.126Z,1006.62
2022-12-05T11:26:20.112Z,1006.61
2022-12-05T11:27:20.100Z,1006.59
2022-12-05T11:28:20.089Z,1006.64
2022-12-05T11:29:20.076Z,1006.60
2022-12-05T11:30:20.068Z,1006.60
2022-12-05T11:31:20.086Z,1006.58
2022-12-05T11:32:20.038Z,1006.65
2022-12-05T11:33:20.027Z,1006.64
2022-12-05T11:34:20.014Z,1006.67
2022-12-05T11:35:20.002Z,1006.65
2022-12-05T11:36:19.991Z,1006.63
2022-12-05T11:37:19.976Z,1006.61
2022-12-05T11:38:19.963Z,1006.60
2022-12-05T11:39:19.952Z,1006.60
2022-12-05T11:40:23.874Z,1006.63
2022-12-05T11:41:19.927Z,1006.64
2022-12-05T11:42:19.915Z,1006.64
2022-12-05T11:43:19.899Z,1006.66
2022-12-05T11:44:19.891Z,1006.71
2022-12-05T11:45:19.873Z,1006.68
2022-12-05T11:46:23.696Z,1006.72
2022-12-05T11:47:19.850Z,1006.67
2022-12-05T11:48:19.840Z,1006.70
2022-12-05T11:49:19.826Z,1006.70
2022-12-05T11:50:19.816Z,1006.68
2022-12-05T11:51:19.801Z,1006.63
2022-12-05T11:52:19.788Z,1006.69
2022-12-05T11:53:19.774Z,1006.68
2022-12-05T11:54:35.677Z,1006.69
2022-12-05T11:55:20.014Z,1006.66
2022-12-05T11:56:19.741Z,1006.62
2022-12-05T11:57:19.725Z,1006.65
2022-12-05T11:58:19.714Z,1006.63
2022-12-05T11:59:19.702Z,1006.62
2022-12-05T12:00:19.692Z,1006.61
2022-12-05T12:01:19.677Z,1006.61
2022-12-05T12:02:19.732Z,1006.63
2022-12-05T12:03:19.683Z,1006.58
2022-12-05T12:04:19.644Z,1006.58
2022-12-05T12:05:19.630Z,1006.58
2022-12-05T12:06:19.618Z,1006.60
2022-12-05T12:07:19.602Z,1006.62
2022-12-05T12:08:19.638Z,1006.59
2022-12-05T12:09:19.578Z,1006.54
2022-12-05T12:10:19.567Z,1006.55
2022-12-05T12:11:19.551Z,1006.60
2022-12-05T12:12:19.542Z,1006.57
2022-12-05T12:13:19.526Z,1006.58
2022-12-05T12:14:19.519Z,1006.58
2022-12-05T12:15:19.503Z,1006.56
2022-12-05T12:16:19.519Z,1006.56
2022-12-05T12:17:19.478Z,1006.55
2022-12-05T12:18:19.465Z,1006.61
2022-12-05T12:19:19.453Z,1006.64
2022-12-05T12:20:19.447Z,1006.62
2022-12-05T12:21:19.443Z,1006.61
2022-12-05T12:22:19.413Z,1006.55
2022-12-05T12:23:19.404Z,1006.58
2022-12-05T12:24:19.391Z,1006.55
2022-12-05T12:25:19.380Z,1006.55
2022-12-05T12:26:19.368Z,1006.56
2022-12-05T12:27:19.354Z,1006.58
2022-12-05T12:28:19.341Z,1006.59
2022-12-05T12:29:19.328Z,1006.55
2022-12-05T12:30:19.316Z,1006.55
2022-12-05T12:31:19.393Z,1006.58
2022-12-05T12:32:19.296Z,1006.56
2022-12-05T12:33:23.981Z,1006.57
2022-12-05T12:34:19.270Z,1006.61
2022-12-05T12:35:19.257Z,1006.62
2022-12-05T12:36:19.240Z,1006.56
2022-12-05T12:37:19.228Z,1006.58
2022-12-05T12:38:19.259Z,1006.56
2022-12-05T12:39:19.207Z,1006.57
2022-12-05T12:40:19.196Z,1006.58
2022-12-05T12:41:19.180Z,1006.58
2022-12-05T12:42:19.165Z,1006.53
2022-12-05T12:43:51.656Z,1006.51
2022-12-05T12:44:19.133Z,1006.47
2022-12-05T12:45:19.129Z,1006.44
2022-12-05T12:46:19.165Z,1006.52
2022-12-05T12:47:19.103Z,1006.50
2022-12-05T12:48:19.092Z,1006.49
2022-12-05T12:49:19.086Z,1006.48
2022-12-05T12:50:19.075Z,1006.47
2022-12-05T12:51:19.055Z,1006.50
2022-12-05T12:52:19.041Z,1006.48
2022-12-05T12:53:19.027Z,1006.47
2022-12-05T12:54:29.232Z,1006.45
2022-12-05T12:55:19.381Z,1006.49
2022-12-05T12:56:18.997Z,1006.48
2022-12-05T12:57:23.505Z,1006.42
2022-12-05T12:58:18.966Z,1006.43
2022-12-05T12:59:18.957Z,1006.43
2022-12-05T13:00:18.946Z,1006.39
2022-12-05T13:01:18.996Z,1006.41
2022-12-05T13:02:18.967Z,1006.38
2022-12-05T13:03:18.903Z,1006.38
2022-12-05T13:04:18.895Z,1006.36
2022-12-05T13:05:18.883Z,1006.34
2022-12-05T13:06:18.869Z,1006.29
2022-12-05T13:07:18.853Z,1006.36
2022-12-05T13:08:18.903Z,1006.33
2022-12-05T13:09:18.831Z,1006.30
2022-12-05T13:10:18.819Z,1006.34
2022-12-05T13:11:18.806Z,1006.32
2022-12-05T13:12:18.796Z,1006.34
2022-12-05T13:13:18.778Z,1006.35
2022-12-05T13:14:18.772Z,1006.35
2022-12-05T13:15:18.757Z,1006.36
2022-12-05T13:16:18.796Z,1006.31
2022-12-05T13:17:18.731Z,1006.34
2022-12-05T13:18:18.716Z,1006.34
2022-12-05T13:19:18.707Z,1006.34
2022-12-05T13:20:18.695Z,1006.30
2022-12-05T13:21:18.676Z,1006.36
2022-12-05T13:22:18.667Z,1006.34
2022-12-05T13:23:18.653Z,1006.31
2022-12-05T13:24:18.646Z,1006.27
2022-12-05T13:25:18.634Z,1006.26
2022-12-05T13:26:18.623Z,1006.26
2022-12-05T13:27:18.609Z,1006.23
2022-12-05T13:28:22.775Z,1006.24
2022-12-05T13:29:18.581Z,1006.21
2022-12-05T13:30:18.592Z,1006.19
2022-12-05T13:31:18.650Z,1006.24
2022-12-05T13:32:18.600Z,1006.20
2022-12-05T13:33:18.524Z,1006.19
2022-12-05T13:34:18.523Z,1006.21
2022-12-05T13:35:18.510Z,1006.21
2022-12-05T13:36:18.499Z,1006.23
2022-12-05T13:37:18.499Z,1006.24
2022-12-05T13:38:18.492Z,1006.23
2022-12-05T13:39:18.453Z,1006.23
2022-12-05T13:40:18.444Z,1006.23
2022-12-05T13:41:18.432Z,1006.22
2022-12-05T13:42:18.423Z,1006.22
2022-12-05T13:43:18.406Z,1006.22
2022-12-05T13:44:18.397Z,1006.26
2022-12-05T13:45:18.384Z,1006.26
2022-12-05T13:46:18.444Z,1006.24
2022-12-05T13:47:18.358Z,1006.22
2022-12-05T13:48:18.344Z,1006.21
2022-12-05T13:49:18.335Z,1006.26
2022-12-05T13:50:18.325Z,1006.29
2022-12-05T13:51:18.314Z,1006.28
2022-12-05T13:52:18.297Z,1006.30
2022-12-05T13:53:18.280Z,1006.31
2022-12-05T13:54:18.271Z,1006.33
2022-12-05T13:55:18.258Z,1006.31
2022-12-05T13:56:18.247Z,1006.36
2022-12-05T13:57:18.234Z,1006.35
2022-12-05T13:58:18.220Z,1006.39
2022-12-05T13:59:18.206Z,1006.41
2022-12-05T14:00:18.197Z,1006.42
2022-12-05T14:01:18.229Z,1006.46
2022-12-05T14:02:18.207Z,1006.48
2022-12-05T14:03:18.160Z,1006.47
2022-12-05T14:04:18.139Z,1006.48
2022-12-05T14:05:18.132Z,1006.51
2022-12-05T14:06:18.120Z,1006.52
2022-12-05T14:07:18.109Z,1006.49
2022-12-05T14:08:18.127Z,1006.48
2022-12-05T14:09:18.087Z,1006.45
2022-12-05T14:10:18.076Z,1006.43
2022-12-05T14:11:18.075Z,1006.42
2022-12-05T14:12:18.047Z,1006.46
2022-12-05T14:13:18.142Z,1006.43
2022-12-05T14:14:18.023Z,1006.42
2022-12-05T14:15:18.011Z,1006.40
2022-12-05T14:16:18.054Z,1006.43
2022-12-05T14:17:17.985Z,1006.41
2022-12-05T14:18:17.970Z,1006.38
2022-12-05T14:19:17.960Z,1006.41
2022-12-05T14:20:17.950Z,1006.41
2022-12-05T14:21:17.934Z,1006.42
2022-12-05T14:22:17.929Z,1006.42
2022-12-05T14:23:17.907Z,1006.47
2022-12-05T14:24:17.897Z,1006.51
2022-12-05T14:25:17.886Z,1006.51
2022-12-05T14:26:17.871Z,1006.51
2022-12-05T14:27:17.865Z,1006.54
2022-12-05T14:28:17.845Z,1006.52
2022-12-05T14:29:17.836Z,1006.52
2022-12-05T14:30:17.827Z,1006.53
2022-12-05T14:31:17.842Z,1006.53
2022-12-05T14:32:17.796Z,1006.51
2022-12-05T14:33:17.788Z,1006.53
2022-12-05T14:34:17.777Z,1006.51
2022-12-05T14:35:17.763Z,1006.54
2022-12-05T14:36:17.750Z,1006.55
2022-12-05T14:37:17.732Z,1006.52
2022-12-05T14:38:17.722Z,1006.54
2022-12-05T14:39:17.711Z,1006.50
2022-12-05T14:40:17.710Z,1006.52
2022-12-05T14:41:17.685Z,1006.47
2022-12-05T14:42:17.669Z,1006.46
2022-12-05T14:43:17.661Z,1006.46
2022-12-05T14:44:17.647Z,1006.50
2022-12-05T14:45:17.637Z,1006.50
2022-12-05T14:46:17.653Z,1006.52
2022-12-05T14:47:17.615Z,1006.53
2022-12-05T14:48:17.599Z,1006.51
2022-12-05T14:49:17.595Z,1006.50
2022-12-05T14:50:17.571Z,1006.52
2022-12-05T14:51:17.562Z,1006.48
2022-12-05T14:52:17.547Z,1006.52
2022-12-05T14:53:17.538Z,1006.50
2022-12-05T14:54:17.522Z,1006.51
2022-12-05T14:55:22.050Z,1006.50
2022-12-05T14:56:17.527Z,1006.53